Aviation Digital Data Service (ADDS)

Output produced by METARs form (1605 UTC 15 December 2017)
found at http://aviationweather.gov/adds/metars/
 
METAR text: KHDN 151556Z AUTO 11009KT 10SM CLR M09/M13 A3033 RMK AO2 SLP331 T10891128 FZRANO
Conditions at: KHDN (HAYDEN/YAMPA , CO, US) observed 1556 UTC 15 December 2017
Temperature: -8.9°C (16°F)
Dewpoint: -12.8°C (9°F) [RH = 73%]
Pressure (altimeter): 30.33 inches Hg (1027.2 mb)
[Sea-level pressure: 1033.1 mb]
Winds: from the ESE (110 degrees) at 10 MPH (9 knots; 4.7 m/s)
Visibility: 10 or more miles (16+ km)
Ceiling: at least 12,000 feet AGL
Clouds: sky clear below 12,000 feet AGL
Weather: automated observation with no human augmentation;
there may or may not be significant weather present at this time